createdAt,value
2023-05-11T00:00:38.396Z,15.90
2023-05-11T00:03:43.800Z,18.88
2023-05-11T00:06:51.668Z,18.85
2023-05-11T00:09:57.080Z,21.73
2023-05-11T00:13:02.601Z,23.05
2023-05-11T00:16:08.453Z,16.63
2023-05-11T00:19:14.023Z,26.63
2023-05-11T00:22:22.091Z,15.13
2023-05-11T00:25:27.640Z,18.10
2023-05-11T00:28:33.048Z,19.75
2023-05-11T00:31:38.657Z,18.60
2023-05-11T00:34:44.494Z,19.85
2023-05-11T00:37:53.083Z,19.90
2023-05-11T00:40:59.195Z,16.88
2023-05-11T00:44:04.716Z,21.55
2023-05-11T00:47:10.875Z,20.23
2023-05-11T00:50:17.453Z,24.48
2023-05-11T00:53:25.590Z,20.35
2023-05-11T00:56:31.078Z,20.33
2023-05-11T00:59:36.609Z,16.02
2023-05-11T01:02:42.920Z,18.80
2023-05-11T01:05:51.792Z,23.33
2023-05-11T01:09:05.674Z,22.40
2023-05-11T01:12:16.803Z,23.48
2023-05-11T01:15:24.488Z,20.80
2023-05-11T01:18:33.405Z,18.52
2023-05-11T01:21:45.215Z,24.38
2023-05-11T01:24:58.241Z,20.45
2023-05-11T01:28:24.786Z,14.13
2023-05-11T01:31:33.914Z,16.67
2023-05-11T01:34:41.348Z,20.85
2023-05-11T01:37:49.593Z,18.60
2023-05-11T01:40:58.090Z,16.48
2023-05-11T01:47:11.453Z,19.23
2023-05-11T01:50:17.549Z,19.40
2023-05-11T01:53:24.367Z,15.75
2023-05-11T01:56:29.933Z,19.25
2023-05-11T01:59:35.829Z,16.95
2023-05-11T02:02:45.397Z,20.20
2023-05-11T02:05:51.573Z,23.70
2023-05-11T02:08:59.087Z,20.15
2023-05-11T02:12:05.016Z,18.10
2023-05-11T02:15:13.030Z,19.40
2023-05-11T02:18:21.693Z,18.25
2023-05-11T02:21:35.799Z,26.10
2023-05-11T02:24:41.834Z,18.98
2023-05-11T02:27:47.286Z,24.25
2023-05-11T02:30:55.610Z,19.90
2023-05-11T02:34:07.852Z,19.00
2023-05-11T02:37:14.416Z,21.73
2023-05-11T02:40:23.086Z,23.42
2023-05-11T02:43:32.545Z,16.92
2023-05-11T02:46:41.955Z,29.23
2023-05-11T02:49:54.540Z,19.90
2023-05-11T02:53:03.091Z,23.42
2023-05-11T02:56:09.449Z,26.10
2023-05-11T02:59:16.030Z,17.10
2023-05-11T03:02:21.443Z,21.75
2023-05-11T03:05:29.867Z,20.25
2023-05-11T03:08:35.023Z,15.50
2023-05-11T03:11:41.398Z,23.25
2023-05-11T03:14:47.752Z,16.48
2023-05-11T03:17:53.943Z,24.50
2023-05-11T03:21:02.818Z,13.35
2023-05-11T03:24:09.719Z,17.67
2023-05-11T03:27:15.154Z,16.95
2023-05-11T03:30:23.309Z,15.57
2023-05-11T03:33:32.032Z,15.20
2023-05-11T03:36:41.677Z,16.85
2023-05-11T03:39:49.255Z,19.05
2023-05-11T03:42:57.783Z,20.83
2023-05-11T03:46:04.562Z,21.85
2023-05-11T03:49:13.506Z,21.15
2023-05-11T03:52:23.370Z,24.75
2023-05-11T03:55:28.885Z,18.73
2023-05-11T03:58:34.838Z,17.92
2023-05-11T04:01:40.770Z,15.60
2023-05-11T04:04:46.520Z,12.90
2023-05-11T04:07:55.055Z,18.90
2023-05-11T04:11:00.232Z,15.93
2023-05-11T04:14:06.969Z,13.50
2023-05-11T04:17:12.675Z,15.00
2023-05-11T04:20:18.819Z,15.90
2023-05-11T04:23:27.152Z,14.75
2023-05-11T04:26:32.945Z,16.27
2023-05-11T04:29:38.726Z,14.35
2023-05-11T04:32:44.161Z,23.40
2023-05-11T04:35:49.862Z,17.55
2023-05-11T04:38:58.224Z,10.95
2023-05-11T04:42:03.856Z,15.85
2023-05-11T04:45:10.531Z,11.05
2023-05-11T04:48:19.568Z,12.43
2023-05-11T04:51:26.171Z,16.65
2023-05-11T04:54:34.709Z,14.10
2023-05-11T04:57:40.649Z,11.13
2023-05-11T05:00:46.116Z,17.90
2023-05-11T05:03:52.256Z,17.05
2023-05-11T05:06:57.688Z,12.85
2023-05-11T05:10:09.356Z,23.23
2023-05-11T05:13:17.045Z,17.27
2023-05-11T05:16:22.576Z,8.53
2023-05-11T05:19:28.427Z,14.95
2023-05-11T05:22:34.695Z,18.73
2023-05-11T05:25:43.826Z,13.60
2023-05-11T05:28:50.337Z,13.10
2023-05-11T05:32:00.167Z,13.68
2023-05-11T05:35:07.320Z,14.98
2023-05-11T05:38:12.862Z,12.30
2023-05-11T05:41:23.653Z,8.90
2023-05-11T05:44:30.344Z,13.52
2023-05-11T05:47:35.926Z,21.17
2023-05-11T05:50:41.578Z,11.43
2023-05-11T05:53:47.390Z,10.10
2023-05-11T05:56:56.045Z,14.80
2023-05-11T06:00:01.857Z,13.43
2023-05-11T06:03:11.683Z,16.05
2023-05-11T06:06:16.990Z,15.07
2023-05-11T06:09:22.454Z,9.57
2023-05-11T06:12:30.553Z,5.60
2023-05-11T06:15:36.623Z,6.45
2023-05-11T06:18:49.661Z,5.60
2023-05-11T06:21:55.067Z,6.38
2023-05-11T06:25:00.660Z,10.43
2023-05-11T06:28:13.273Z,11.35
2023-05-11T06:31:19.580Z,11.90
2023-05-11T06:34:26.573Z,5.57
2023-05-11T06:37:33.155Z,6.20
2023-05-11T06:40:39.107Z,9.50
2023-05-11T06:43:47.000Z,5.18
2023-05-11T06:47:04.806Z,7.65
2023-05-11T06:50:10.473Z,4.97
2023-05-11T06:53:18.335Z,6.93
2023-05-11T06:56:23.801Z,4.32
2023-05-11T06:59:32.874Z,5.85
2023-05-11T07:02:38.195Z,3.60
2023-05-11T07:05:44.164Z,7.30
2023-05-11T07:08:49.641Z,3.60
2023-05-11T07:11:55.063Z,7.50
2023-05-11T07:15:03.334Z,8.55
2023-05-11T07:18:10.319Z,6.60
2023-05-11T07:21:15.744Z,6.75
2023-05-11T07:24:21.195Z,8.50
2023-05-11T07:27:26.595Z,6.72
2023-05-11T07:30:34.536Z,14.63
2023-05-11T07:33:40.491Z,6.65
2023-05-11T07:36:46.848Z,4.85
2023-05-11T07:39:52.254Z,6.20
2023-05-11T07:42:57.760Z,7.20
2023-05-11T07:46:05.927Z,12.65
2023-05-11T07:49:18.626Z,6.00
2023-05-11T07:52:28.470Z,4.20
2023-05-11T07:55:33.759Z,4.53
2023-05-11T07:58:39.260Z,4.63
2023-05-11T08:01:47.464Z,5.60
2023-05-11T08:07:58.345Z,9.65
2023-05-11T08:11:04.465Z,8.57
2023-05-11T08:14:10.109Z,5.85
2023-05-11T08:17:18.169Z,3.95
2023-05-11T08:20:23.844Z,5.78
2023-05-11T08:23:29.372Z,8.80
2023-05-11T08:26:34.996Z,6.18
2023-05-11T08:29:40.285Z,4.47
2023-05-11T08:32:57.775Z,5.38
2023-05-11T08:36:04.502Z,7.63
2023-05-11T08:39:09.910Z,7.03
2023-05-11T08:42:17.762Z,6.60
2023-05-11T08:45:24.129Z,11.15
2023-05-11T08:48:32.484Z,6.22
2023-05-11T08:51:37.929Z,4.07
2023-05-11T08:54:43.490Z,4.53
2023-05-11T08:57:49.531Z,3.60
2023-05-11T09:00:55.321Z,9.45
2023-05-11T09:04:03.992Z,7.32
2023-05-11T09:07:10.120Z,2.63
2023-05-11T09:10:15.417Z,5.97
2023-05-11T09:13:20.976Z,10.65
2023-05-11T09:16:36.881Z,7.43
2023-05-11T09:19:59.712Z,6.50
2023-05-11T09:23:05.036Z,7.95
2023-05-11T09:26:17.019Z,4.75
2023-05-11T09:29:22.881Z,24.00
2023-05-11T09:32:28.621Z,20.27
2023-05-11T09:35:37.281Z,3.22
2023-05-11T09:38:42.716Z,1.88
2023-05-11T09:41:49.951Z,1.65
2023-05-11T09:44:56.443Z,3.55
2023-05-11T09:48:03.005Z,2.83
2023-05-11T09:51:11.179Z,2.65
2023-05-11T09:54:21.060Z,3.63
2023-05-11T09:57:27.296Z,3.33
2023-05-11T10:00:33.251Z,3.88
2023-05-11T10:03:48.691Z,3.15
2023-05-11T10:06:57.109Z,5.43
2023-05-11T10:13:09.289Z,3.50
2023-05-11T10:16:16.087Z,2.97
2023-05-11T10:19:22.343Z,5.20
2023-05-11T10:22:31.106Z,3.35
2023-05-11T10:25:37.233Z,9.02
2023-05-11T10:28:42.895Z,6.35
2023-05-11T10:31:49.746Z,3.67
2023-05-11T10:34:55.313Z,3.45
2023-05-11T10:38:04.077Z,3.35
2023-05-11T10:41:15.991Z,4.88
2023-05-11T10:44:36.467Z,4.35
2023-05-11T10:47:56.967Z,3.08
2023-05-11T10:51:20.418Z,6.65
2023-05-11T10:54:36.821Z,7.18
2023-05-11T10:57:48.362Z,7.97
2023-05-11T11:01:13.196Z,4.47
2023-05-11T11:04:20.850Z,8.00
2023-05-11T11:07:26.491Z,8.30
2023-05-11T11:10:38.215Z,9.00
2023-05-11T11:13:58.275Z,2.30
2023-05-11T11:17:19.056Z,3.90
2023-05-11T11:20:39.349Z,5.03
2023-05-11T11:23:49.427Z,9.23
2023-05-11T11:26:57.913Z,3.55
2023-05-11T11:30:18.177Z,7.25
2023-05-11T11:33:35.944Z,5.38
2023-05-11T11:37:04.357Z,8.02
2023-05-11T11:40:15.318Z,7.10
2023-05-11T11:43:24.977Z,3.63
2023-05-11T11:46:31.422Z,6.07
2023-05-11T11:49:36.831Z,6.47
2023-05-11T11:52:42.476Z,6.65
2023-05-11T11:55:52.221Z,5.50
2023-05-11T11:59:05.639Z,6.10
2023-05-11T12:02:11.307Z,6.85
2023-05-11T12:05:19.499Z,7.57
2023-05-11T12:11:33.002Z,14.55
2023-05-11T12:14:42.450Z,7.57
2023-05-11T12:17:48.210Z,5.20
2023-05-11T12:20:53.796Z,6.55
2023-05-11T12:24:00.384Z,8.70
2023-05-11T12:27:06.572Z,6.57
2023-05-11T12:30:21.933Z,4.82
2023-05-11T12:33:27.372Z,6.38
2023-05-11T12:36:33.525Z,5.78
2023-05-11T12:39:42.087Z,4.50
2023-05-11T12:42:52.933Z,4.43
2023-05-11T12:46:01.406Z,4.07
2023-05-11T12:49:07.387Z,3.08
2023-05-11T12:52:13.072Z,4.72
2023-05-11T12:55:18.827Z,7.82
2023-05-11T12:58:25.179Z,4.50
2023-05-11T13:01:33.042Z,6.35
2023-05-11T13:07:44.531Z,4.38
2023-05-11T13:10:50.258Z,6.13
2023-05-11T13:13:56.934Z,1.77
2023-05-11T13:17:04.952Z,4.32
2023-05-11T13:20:24.228Z,3.58
2023-05-11T13:23:30.861Z,2.17
2023-05-11T13:26:36.320Z,2.28
2023-05-11T13:29:41.728Z,2.58
2023-05-11T13:32:49.961Z,3.25
2023-05-11T13:35:55.416Z,3.55
2023-05-11T13:39:01.035Z,4.57
2023-05-11T13:42:06.569Z,12.77
2023-05-11T13:45:12.714Z,4.15
2023-05-11T13:48:20.897Z,6.35
2023-05-11T13:51:26.484Z,3.58
2023-05-11T13:54:32.359Z,6.70
2023-05-11T13:57:37.863Z,2.50
2023-05-11T14:00:50.415Z,4.85
2023-05-11T14:04:05.489Z,2.25
2023-05-11T14:07:11.104Z,3.67
2023-05-11T14:10:17.030Z,3.42
2023-05-11T14:13:22.750Z,5.90
2023-05-11T14:16:28.115Z,4.70
2023-05-11T14:19:36.441Z,4.35
2023-05-11T14:22:42.279Z,5.00
2023-05-11T14:25:47.965Z,5.25
2023-05-11T14:28:53.160Z,3.67
2023-05-11T14:31:59.389Z,3.53
2023-05-11T14:35:07.417Z,3.42
2023-05-11T14:38:13.650Z,3.20
2023-05-11T14:41:19.294Z,2.83
2023-05-11T14:44:25.606Z,5.32
2023-05-11T14:47:30.999Z,4.90
2023-05-11T14:50:38.975Z,6.97
2023-05-11T14:53:44.522Z,6.05
2023-05-11T14:56:54.345Z,7.15
2023-05-11T15:00:00.702Z,3.95
2023-05-11T15:03:07.687Z,5.07
2023-05-11T15:06:21.343Z,3.08
2023-05-11T15:09:26.737Z,6.10
2023-05-11T15:12:32.585Z,3.42
2023-05-11T15:15:38.280Z,5.07
2023-05-11T15:18:43.860Z,3.78
2023-05-11T15:21:52.140Z,7.38
2023-05-11T15:24:57.705Z,2.30
2023-05-11T15:28:03.291Z,4.43
2023-05-11T15:31:09.216Z,6.15
2023-05-11T15:34:14.693Z,9.02
2023-05-11T15:37:22.885Z,5.05
2023-05-11T15:40:29.290Z,7.57
2023-05-11T15:43:34.875Z,5.05
2023-05-11T15:46:41.486Z,6.65
2023-05-11T15:49:46.813Z,5.68
2023-05-11T15:52:56.792Z,8.65
2023-05-11T15:56:01.937Z,4.03
2023-05-11T15:59:07.938Z,8.75
2023-05-11T16:02:13.368Z,6.35
2023-05-11T16:05:19.288Z,7.47
2023-05-11T16:08:27.530Z,4.68
2023-05-11T16:14:38.226Z,4.45
2023-05-11T16:17:43.820Z,8.40
2023-05-11T16:20:49.144Z,3.30
2023-05-11T16:23:57.589Z,4.00
2023-05-11T16:30:18.261Z,5.70
2023-05-11T16:33:29.137Z,3.17
2023-05-11T16:36:34.661Z,5.72
2023-05-11T16:39:42.807Z,3.60
2023-05-11T16:42:49.516Z,4.18
2023-05-11T16:45:54.879Z,3.78
2023-05-11T16:49:00.671Z,3.55
2023-05-11T16:52:06.298Z,6.35
2023-05-11T16:55:16.512Z,3.60
2023-05-11T16:58:21.784Z,4.07
2023-05-11T17:01:27.380Z,3.90
2023-05-11T17:04:32.711Z,8.68
2023-05-11T17:07:38.152Z,6.78
2023-05-11T17:10:46.556Z,7.97
2023-05-11T17:16:57.191Z,7.35
2023-05-11T17:20:06.409Z,5.85
2023-05-11T17:23:12.494Z,8.80
2023-05-11T17:26:22.085Z,4.43
2023-05-11T17:29:30.466Z,11.00
2023-05-11T17:32:36.344Z,12.45
2023-05-11T17:35:41.921Z,14.00
2023-05-11T17:38:47.747Z,11.48
2023-05-11T17:41:55.703Z,10.60
2023-05-11T17:45:01.235Z,9.35
2023-05-11T17:48:10.762Z,11.98
2023-05-11T17:51:16.734Z,9.95
2023-05-11T17:54:22.385Z,11.35
2023-05-11T17:57:30.706Z,9.60
2023-05-11T18:00:35.969Z,8.32
2023-05-11T18:03:41.882Z,8.07
2023-05-11T18:06:47.864Z,10.13
2023-05-11T18:09:53.321Z,8.20
2023-05-11T18:13:01.393Z,12.85
2023-05-11T18:16:07.434Z,11.68
2023-05-11T18:19:13.367Z,11.70
2023-05-11T18:22:18.764Z,12.35
2023-05-11T18:25:24.891Z,11.98
2023-05-11T18:28:32.828Z,8.55
2023-05-11T18:31:38.257Z,12.40
2023-05-11T18:34:43.834Z,16.88
2023-05-11T18:37:49.454Z,10.77
2023-05-11T18:40:56.700Z,8.65
2023-05-11T18:44:05.075Z,10.50
2023-05-11T18:47:11.550Z,10.68
2023-05-11T18:50:17.079Z,12.63
2023-05-11T18:53:22.525Z,15.73
2023-05-11T18:56:27.939Z,10.07
2023-05-11T18:59:36.020Z,8.05
2023-05-11T19:02:41.289Z,10.88
2023-05-11T19:05:46.933Z,10.23
2023-05-11T19:08:53.924Z,11.57
2023-05-11T19:12:00.626Z,11.93
2023-05-11T19:15:09.359Z,8.93
2023-05-11T19:18:15.002Z,18.05
2023-05-11T19:21:20.789Z,16.05
2023-05-11T19:24:25.896Z,17.15
2023-05-11T19:27:31.509Z,12.68
2023-05-11T19:30:39.681Z,14.25
2023-05-11T19:33:45.221Z,15.88
2023-05-11T19:36:51.086Z,12.95
2023-05-11T19:40:11.137Z,11.60
2023-05-11T19:43:23.264Z,14.60
2023-05-11T19:46:31.770Z,12.45
2023-05-11T19:49:37.233Z,14.05
2023-05-11T19:52:42.917Z,14.13
2023-05-11T19:55:48.409Z,10.60
2023-05-11T19:58:53.555Z,15.07
2023-05-11T20:02:02.065Z,11.95
2023-05-11T20:05:08.267Z,12.13
2023-05-11T20:08:13.904Z,12.27
2023-05-11T20:11:19.181Z,12.52
2023-05-11T20:14:24.900Z,13.40
2023-05-11T20:17:32.968Z,13.13
2023-05-11T20:20:38.301Z,17.15
2023-05-11T20:23:44.511Z,12.95
2023-05-11T20:26:49.684Z,14.73
2023-05-11T20:29:55.380Z,13.75
2023-05-11T20:36:12.081Z,14.45
2023-05-11T20:39:17.715Z,11.32
2023-05-11T20:42:23.361Z,16.08
2023-05-11T20:45:29.140Z,11.25
2023-05-11T20:48:40.537Z,12.05
2023-05-11T20:51:47.195Z,15.05
2023-05-11T20:54:54.226Z,9.85
2023-05-11T20:58:00.265Z,10.63
2023-05-11T21:01:06.858Z,14.38
2023-05-11T21:04:14.922Z,11.30
2023-05-11T21:07:23.482Z,12.10
2023-05-11T21:10:28.850Z,14.00
2023-05-11T21:13:34.562Z,10.90
2023-05-11T21:16:39.837Z,11.20
2023-05-11T21:19:48.080Z,13.77
2023-05-11T21:22:53.300Z,13.35
2023-05-11T21:25:59.134Z,17.83
2023-05-11T21:29:04.816Z,12.10
2023-05-11T21:32:10.902Z,15.43
2023-05-11T21:35:19.006Z,13.00
2023-05-11T21:38:24.751Z,11.18
2023-05-11T21:41:30.917Z,12.00
2023-05-11T21:44:36.752Z,12.60
2023-05-11T21:47:42.508Z,12.15
2023-05-11T21:50:54.658Z,14.65
2023-05-11T21:54:00.188Z,12.40
2023-05-11T21:57:05.959Z,20.40
2023-05-11T22:00:19.024Z,16.52
2023-05-11T22:03:24.597Z,13.48
2023-05-11T22:06:32.695Z,10.90
2023-05-11T22:09:38.239Z,16.25
2023-05-11T22:12:43.992Z,19.73
2023-05-11T22:15:49.680Z,10.18
2023-05-11T22:18:55.271Z,14.35
2023-05-11T22:22:03.365Z,12.90
2023-05-11T22:25:09.345Z,13.02
2023-05-11T22:28:14.640Z,11.02
2023-05-11T22:31:19.906Z,14.75
2023-05-11T22:34:25.354Z,13.18
2023-05-11T22:37:34.059Z,11.88
2023-05-11T22:40:39.565Z,15.68
2023-05-11T22:43:45.095Z,15.25
2023-05-11T22:46:51.281Z,11.98
2023-05-11T22:49:56.656Z,14.90
2023-05-11T22:53:04.946Z,13.20
2023-05-11T22:56:10.559Z,11.80
2023-05-11T22:59:16.270Z,11.88
2023-05-11T23:02:21.761Z,11.65
2023-05-11T23:05:27.361Z,11.07
2023-05-11T23:08:35.646Z,12.10
2023-05-11T23:11:41.013Z,16.20
2023-05-11T23:14:46.309Z,14.48
2023-05-11T23:17:51.640Z,13.55
2023-05-11T23:20:58.645Z,15.70
2023-05-11T23:24:07.282Z,16.05
2023-05-11T23:27:12.731Z,13.93
2023-05-11T23:30:18.480Z,15.57
2023-05-11T23:33:24.244Z,14.20
2023-05-11T23:36:29.877Z,13.48
2023-05-11T23:39:39.003Z,10.68
2023-05-11T23:42:45.228Z,13.55
2023-05-11T23:45:50.565Z,13.05
2023-05-11T23:48:56.335Z,12.65
2023-05-11T23:52:02.117Z,12.32
2023-05-11T23:55:10.900Z,10.05
2023-05-11T23:58:16.516Z,15.50
